createdAt,value
2022-08-03T00:00:24.274Z,13.38
2022-08-03T00:02:51.136Z,14.52
2022-08-03T00:05:17.834Z,12.57
2022-08-03T00:07:44.408Z,13.50
2022-08-03T00:10:12.723Z,14.02
2022-08-03T00:12:39.749Z,13.05
2022-08-03T00:15:10.388Z,13.02
2022-08-03T00:17:53.080Z,13.88
2022-08-03T00:20:23.822Z,12.50
2022-08-03T00:22:50.861Z,13.50
2022-08-03T00:25:17.666Z,13.98
2022-08-03T00:27:44.278Z,13.43
2022-08-03T00:30:11.479Z,12.68
2022-08-03T00:32:38.779Z,12.18
2022-08-03T00:35:18.246Z,12.30
2022-08-03T00:37:58.823Z,13.55
2022-08-03T00:40:25.426Z,12.15
2022-08-03T00:42:59.783Z,12.05
2022-08-03T00:45:35.164Z,13.45
2022-08-03T00:48:02.785Z,12.13
2022-08-03T00:50:32.508Z,12.65
2022-08-03T00:52:59.983Z,12.75
2022-08-03T00:55:26.948Z,12.77
2022-08-03T00:57:54.210Z,13.18
2022-08-03T01:00:23.538Z,13.02
2022-08-03T01:02:50.511Z,11.75
2022-08-03T01:05:18.321Z,12.63
2022-08-03T01:08:03.799Z,12.88
2022-08-03T01:10:48.959Z,13.10
2022-08-03T01:14:04.644Z,14.70
2022-08-03T01:16:08.363Z,15.18
2022-08-03T01:18:55.730Z,13.55
2022-08-03T01:21:40.547Z,12.15
2022-08-03T01:24:33.113Z,13.00
2022-08-03T01:27:43.186Z,12.75
2022-08-03T01:30:12.558Z,13.20
2022-08-03T01:33:01.909Z,12.10
2022-08-03T01:35:40.568Z,11.55
2022-08-03T01:38:12.662Z,12.05
2022-08-03T01:40:41.619Z,16.95
2022-08-03T01:43:12.712Z,13.85
2022-08-03T01:45:41.317Z,13.18
2022-08-03T01:48:09.518Z,12.90
2022-08-03T01:50:36.979Z,13.18
2022-08-03T01:53:04.360Z,12.95
2022-08-03T01:55:33.291Z,11.77
2022-08-03T01:58:05.268Z,12.07
2022-08-03T02:00:35.302Z,12.40
2022-08-03T02:03:04.825Z,13.32
2022-08-03T02:05:32.182Z,12.55
2022-08-03T02:08:00.626Z,12.93
2022-08-03T02:10:35.267Z,12.38
2022-08-03T02:13:05.157Z,19.38
2022-08-03T02:15:33.906Z,11.95
2022-08-03T02:18:03.660Z,12.02
2022-08-03T02:20:33.204Z,13.63
2022-08-03T02:22:59.902Z,11.85
2022-08-03T02:25:26.667Z,11.73
2022-08-03T02:27:58.445Z,11.32
2022-08-03T02:30:36.994Z,13.52
2022-08-03T02:33:05.671Z,13.07
2022-08-03T02:35:34.163Z,14.00
2022-08-03T02:38:04.272Z,11.43
2022-08-03T02:40:33.203Z,12.57
2022-08-03T02:43:03.810Z,17.00
2022-08-03T02:45:36.027Z,13.15
2022-08-03T02:48:04.922Z,10.68
2022-08-03T02:50:33.478Z,11.38
2022-08-03T02:53:01.639Z,12.55
2022-08-03T02:55:29.047Z,10.57
2022-08-03T02:57:57.062Z,13.60
2022-08-03T03:00:30.988Z,11.68
2022-08-03T03:03:00.346Z,11.25
2022-08-03T03:05:56.194Z,11.00
2022-08-03T03:08:17.777Z,11.32
2022-08-03T03:10:47.161Z,11.32
2022-08-03T03:13:16.028Z,11.05
2022-08-03T03:15:44.280Z,12.00
2022-08-03T03:18:11.331Z,13.20
2022-08-03T03:20:40.849Z,11.25
2022-08-03T03:23:09.249Z,11.77
2022-08-03T03:25:36.688Z,11.98
2022-08-03T03:28:06.220Z,10.05
2022-08-03T03:30:33.533Z,13.50
2022-08-03T03:33:00.653Z,11.70
2022-08-03T03:35:27.951Z,12.15
2022-08-03T03:37:55.132Z,11.52
2022-08-03T03:40:22.440Z,10.52
2022-08-03T03:42:50.191Z,12.20
2022-08-03T03:45:17.857Z,12.40
2022-08-03T03:47:44.667Z,10.18
2022-08-03T03:50:11.743Z,11.32
2022-08-03T03:52:38.659Z,11.32
2022-08-03T03:55:05.759Z,11.63
2022-08-03T03:57:33.974Z,12.13
2022-08-03T04:00:00.791Z,11.40
2022-08-03T04:02:27.665Z,11.18
2022-08-03T04:05:13.145Z,11.60
2022-08-03T04:08:29.395Z,11.35
2022-08-03T04:11:17.004Z,11.82
2022-08-03T04:13:50.729Z,10.93
2022-08-03T04:16:21.147Z,11.40
2022-08-03T04:18:54.044Z,13.18
2022-08-03T04:21:23.530Z,11.88
2022-08-03T04:23:52.994Z,11.07
2022-08-03T04:26:22.892Z,18.85
2022-08-03T04:28:51.567Z,11.02
2022-08-03T04:31:22.121Z,12.00
2022-08-03T04:33:50.074Z,10.65
2022-08-03T04:36:25.954Z,12.10
2022-08-03T04:38:55.595Z,11.15
2022-08-03T04:41:24.943Z,11.95
2022-08-03T04:43:54.845Z,11.90
2022-08-03T04:46:24.159Z,12.48
2022-08-03T04:48:51.376Z,12.68
2022-08-03T04:51:18.513Z,13.15
2022-08-03T04:53:45.146Z,12.15
2022-08-03T04:56:11.938Z,11.90
2022-08-03T04:58:38.535Z,12.55
2022-08-03T05:01:05.230Z,13.88
2022-08-03T05:03:32.230Z,13.95
2022-08-03T05:06:01.828Z,13.65
2022-08-03T05:08:36.965Z,13.20
2022-08-03T05:11:13.166Z,13.30
2022-08-03T05:13:39.809Z,12.57
2022-08-03T05:16:06.377Z,13.32
2022-08-03T05:18:33.042Z,16.20
2022-08-03T05:20:59.635Z,12.68
2022-08-03T05:23:26.190Z,15.02
2022-08-03T05:25:52.793Z,13.32
2022-08-03T05:28:19.463Z,13.15
2022-08-03T05:30:46.371Z,11.90
2022-08-03T05:33:12.977Z,13.90
2022-08-03T05:35:55.651Z,13.88
2022-08-03T05:38:28.540Z,12.80
2022-08-03T05:41:22.365Z,11.68
2022-08-03T05:43:44.972Z,13.05
2022-08-03T05:46:13.139Z,12.52
2022-08-03T05:48:40.522Z,12.82
2022-08-03T05:51:11.096Z,14.07
2022-08-03T05:53:38.465Z,14.38
2022-08-03T05:56:13.651Z,13.60
2022-08-03T05:58:46.428Z,13.20
2022-08-03T06:01:13.595Z,12.07
2022-08-03T06:03:40.438Z,14.13
2022-08-03T06:06:07.122Z,17.50
2022-08-03T06:08:34.534Z,14.23
2022-08-03T06:11:01.174Z,13.27
2022-08-03T06:13:27.783Z,14.00
2022-08-03T06:15:54.355Z,13.25
2022-08-03T06:18:21.067Z,12.68
2022-08-03T06:20:49.385Z,13.20
2022-08-03T06:23:18.612Z,13.10
2022-08-03T06:25:45.976Z,15.13
2022-08-03T06:28:35.370Z,11.93
2022-08-03T06:31:01.121Z,12.27
2022-08-03T06:34:31.185Z,16.35
2022-08-03T06:36:15.157Z,11.68
2022-08-03T06:38:41.809Z,12.20
2022-08-03T06:41:08.499Z,13.68
2022-08-03T06:43:37.766Z,12.38
2022-08-03T06:46:05.745Z,13.13
2022-08-03T06:48:32.657Z,12.98
2022-08-03T06:50:59.380Z,13.55
2022-08-03T06:53:26.367Z,12.85
2022-08-03T06:55:55.056Z,12.10
2022-08-03T06:58:22.481Z,13.43
2022-08-03T07:00:49.269Z,12.35
2022-08-03T07:03:16.683Z,12.45
2022-08-03T07:05:43.898Z,16.08
2022-08-03T07:08:10.568Z,12.95
2022-08-03T07:10:37.307Z,13.85
2022-08-03T07:13:04.685Z,12.63
2022-08-03T07:15:53.874Z,13.02
2022-08-03T07:18:18.215Z,13.63
2022-08-03T07:20:55.939Z,11.43
2022-08-03T07:23:22.491Z,12.40
2022-08-03T07:25:49.113Z,13.75
2022-08-03T07:28:15.695Z,12.23
2022-08-03T07:30:42.273Z,12.80
2022-08-03T07:33:08.848Z,11.80
2022-08-03T07:35:35.513Z,11.70
2022-08-03T07:38:02.140Z,10.35
2022-08-03T07:40:31.518Z,11.38
2022-08-03T07:42:59.398Z,11.32
2022-08-03T07:45:26.851Z,11.05
2022-08-03T07:47:54.202Z,15.98
2022-08-03T07:50:21.650Z,12.50
2022-08-03T07:52:49.290Z,11.55
2022-08-03T07:55:19.266Z,11.93
2022-08-03T07:57:46.030Z,11.63
2022-08-03T08:00:17.020Z,10.85
2022-08-03T08:02:44.666Z,15.40
2022-08-03T08:05:11.398Z,11.57
2022-08-03T08:07:39.232Z,11.35
2022-08-03T08:10:08.023Z,11.68
2022-08-03T08:12:34.649Z,13.20
2022-08-03T08:15:01.277Z,10.60
2022-08-03T08:17:27.892Z,11.88
2022-08-03T08:19:54.700Z,12.07
2022-08-03T08:22:29.691Z,11.63
2022-08-03T08:24:58.373Z,11.23
2022-08-03T08:27:25.480Z,16.02
2022-08-03T08:29:54.591Z,12.35
2022-08-03T08:32:23.157Z,11.63
2022-08-03T08:34:49.757Z,17.15
2022-08-03T08:37:16.467Z,11.73
2022-08-03T08:39:43.094Z,11.68
2022-08-03T08:42:10.328Z,12.30
2022-08-03T08:44:37.056Z,10.73
2022-08-03T08:47:04.522Z,11.27
2022-08-03T08:49:33.053Z,12.02
2022-08-03T08:52:01.614Z,11.93
2022-08-03T08:54:30.960Z,10.88
2022-08-03T08:57:01.980Z,12.20
2022-08-03T08:59:47.995Z,12.40
2022-08-03T09:02:16.126Z,10.73
2022-08-03T09:04:42.961Z,10.65
2022-08-03T09:07:19.984Z,11.48
2022-08-03T09:10:11.057Z,12.27
2022-08-03T09:12:45.408Z,11.77
2022-08-03T09:15:28.656Z,11.05
2022-08-03T09:17:57.818Z,14.05
2022-08-03T09:20:25.971Z,11.18
2022-08-03T09:23:44.778Z,11.18
2022-08-03T09:26:01.654Z,10.35
2022-08-03T09:29:01.603Z,11.32
2022-08-03T09:31:34.637Z,10.57
2022-08-03T09:34:12.864Z,11.68
2022-08-03T09:36:41.079Z,11.90
2022-08-03T09:39:13.612Z,12.27
2022-08-03T09:41:42.256Z,12.00
2022-08-03T09:44:08.988Z,11.32
2022-08-03T09:46:53.222Z,10.65
2022-08-03T09:49:19.887Z,11.80
2022-08-03T09:52:31.585Z,10.48
2022-08-03T09:54:34.314Z,11.65
2022-08-03T09:57:01.194Z,10.77
2022-08-03T09:59:30.867Z,11.73
2022-08-03T10:01:59.987Z,11.63
2022-08-03T10:04:26.758Z,12.65
2022-08-03T10:07:10.818Z,14.88
2022-08-03T10:09:38.256Z,13.85
2022-08-03T10:12:12.574Z,12.18
2022-08-03T10:14:41.779Z,13.23
2022-08-03T10:17:09.942Z,10.65
2022-08-03T10:19:36.870Z,11.23
2022-08-03T10:22:15.763Z,11.15
2022-08-03T10:24:52.469Z,10.07
2022-08-03T10:27:20.907Z,9.80
2022-08-03T10:29:53.947Z,9.88
2022-08-03T10:32:31.659Z,10.90
2022-08-03T10:35:19.620Z,10.45
2022-08-03T10:38:14.630Z,12.70
2022-08-03T10:40:50.464Z,10.30
2022-08-03T10:43:28.555Z,11.10
2022-08-03T10:45:56.838Z,10.30
2022-08-03T10:48:25.210Z,10.13
2022-08-03T10:50:52.506Z,9.50
2022-08-03T10:53:38.519Z,12.30
2022-08-03T10:56:35.798Z,11.27
2022-08-03T10:59:11.475Z,11.37
2022-08-03T11:01:58.904Z,13.20
2022-08-03T11:04:29.380Z,13.25
2022-08-03T11:07:24.083Z,14.70
2022-08-03T11:09:56.285Z,12.60
2022-08-03T11:12:30.609Z,11.50
2022-08-03T11:17:31.747Z,12.65
2022-08-03T11:19:58.769Z,7.85
2022-08-03T11:22:25.757Z,9.90
2022-08-03T11:24:54.361Z,5.63
2022-08-03T11:27:23.305Z,5.20
2022-08-03T11:30:16.171Z,6.32
2022-08-03T11:32:48.454Z,7.30
2022-08-03T11:35:23.530Z,12.27
2022-08-03T11:38:05.056Z,13.20
2022-08-03T11:40:38.769Z,8.88
2022-08-03T11:43:07.306Z,8.68
2022-08-03T11:45:34.936Z,10.38
2022-08-03T11:48:15.886Z,9.13
2022-08-03T11:50:45.320Z,10.68
2022-08-03T11:53:17.305Z,10.73
2022-08-03T11:55:48.788Z,11.65
2022-08-03T11:59:01.306Z,10.82
2022-08-03T12:01:08.203Z,10.65
2022-08-03T12:03:35.629Z,11.32
2022-08-03T12:06:03.083Z,10.35
2022-08-03T12:08:33.478Z,11.60
2022-08-03T12:11:02.301Z,12.15
2022-08-03T12:14:44.046Z,10.95
2022-08-03T12:19:10.070Z,11.93
2022-08-03T12:21:57.005Z,10.90
2022-08-03T12:24:24.038Z,11.20
2022-08-03T12:26:58.323Z,10.68
2022-08-03T12:29:26.313Z,11.65
2022-08-03T12:31:53.014Z,9.63
2022-08-03T12:34:19.722Z,8.68
2022-08-03T12:36:56.152Z,11.00
2022-08-03T12:39:27.859Z,9.13
2022-08-03T12:41:55.878Z,14.13
2022-08-03T12:44:36.072Z,10.57
2022-08-03T12:47:04.273Z,10.15
2022-08-03T12:49:49.371Z,10.40
2022-08-03T12:52:17.518Z,9.60
2022-08-03T12:54:57.599Z,9.75
2022-08-03T12:57:24.971Z,8.32
2022-08-03T12:59:55.832Z,8.80
2022-08-03T13:02:27.700Z,9.40
2022-08-03T13:04:54.979Z,11.45
2022-08-03T13:07:22.779Z,9.30
2022-08-03T13:09:50.833Z,11.07
2022-08-03T13:12:18.352Z,9.93
2022-08-03T13:14:47.670Z,11.02
2022-08-03T13:17:16.823Z,11.65
2022-08-03T13:19:43.990Z,10.15
2022-08-03T13:22:12.992Z,10.25
2022-08-03T13:24:39.841Z,11.35
2022-08-03T13:28:02.564Z,13.13
2022-08-03T13:29:54.810Z,11.68
2022-08-03T13:32:23.012Z,12.38
2022-08-03T13:34:49.853Z,10.38
2022-08-03T13:37:16.531Z,12.25
2022-08-03T13:39:57.665Z,10.73
2022-08-03T13:42:31.823Z,12.40
2022-08-03T13:45:00.076Z,10.65
2022-08-03T13:47:27.241Z,12.32
2022-08-03T13:50:00.802Z,11.00
2022-08-03T13:52:36.508Z,11.30
2022-08-03T13:55:05.668Z,11.80
2022-08-03T13:58:04.434Z,10.73
2022-08-03T14:00:27.775Z,8.18
2022-08-03T14:03:02.706Z,6.47
2022-08-03T14:08:04.185Z,9.20
2022-08-03T14:10:35.643Z,8.35
2022-08-03T14:13:02.573Z,9.60
2022-08-03T14:15:29.182Z,13.82
2022-08-03T14:17:58.572Z,9.55
2022-08-03T14:20:37.876Z,9.98
2022-08-03T14:23:12.897Z,10.43
2022-08-03T14:25:50.515Z,11.82
2022-08-03T14:28:23.221Z,11.35
2022-08-03T14:30:53.894Z,10.73
2022-08-03T14:33:21.134Z,12.38
2022-08-03T14:35:47.881Z,12.23
2022-08-03T14:38:14.847Z,13.30
2022-08-03T14:40:41.538Z,12.27
2022-08-03T14:43:08.141Z,12.32
2022-08-03T14:45:34.767Z,11.02
2022-08-03T14:50:29.164Z,12.00
2022-08-03T14:50:51.610Z,13.73
2022-08-03T14:53:19.456Z,12.88
2022-08-03T14:55:49.914Z,14.70
2022-08-03T14:58:21.069Z,14.07
2022-08-03T15:00:48.253Z,13.30
2022-08-03T15:03:16.710Z,13.00
2022-08-03T15:05:44.317Z,13.07
2022-08-03T15:08:10.926Z,15.23
2022-08-03T15:10:43.820Z,11.18
2022-08-03T15:13:13.172Z,12.82
2022-08-03T15:15:40.348Z,7.05
2022-08-03T15:18:07.018Z,6.32
2022-08-03T15:20:43.901Z,6.22
2022-08-03T15:23:12.051Z,6.30
2022-08-03T15:26:28.198Z,6.32
2022-08-03T15:28:25.272Z,5.47
2022-08-03T15:30:53.047Z,5.63
2022-08-03T15:33:20.165Z,10.80
2022-08-03T15:35:47.683Z,5.53
2022-08-03T15:38:14.461Z,5.68
2022-08-03T15:40:41.384Z,6.35
2022-08-03T15:43:08.306Z,6.95
2022-08-03T15:45:36.441Z,6.78
2022-08-03T15:48:07.136Z,6.47
2022-08-03T15:50:33.837Z,5.82
2022-08-03T15:53:00.439Z,6.90
2022-08-03T15:55:27.295Z,6.43
2022-08-03T15:59:10.431Z,7.15
2022-08-03T16:00:41.900Z,7.38
2022-08-03T16:03:08.593Z,8.55
2022-08-03T16:05:35.801Z,7.95
2022-08-03T16:08:03.487Z,7.38
2022-08-03T16:10:32.547Z,8.00
2022-08-03T16:13:00.319Z,7.30
2022-08-03T16:15:27.311Z,7.85
2022-08-03T16:17:53.999Z,8.00
2022-08-03T16:20:30.931Z,9.55
2022-08-03T16:23:10.361Z,9.55
2022-08-03T16:25:39.316Z,8.82
2022-08-03T16:28:12.731Z,8.02
2022-08-03T16:30:42.614Z,10.07
2022-08-03T16:33:09.659Z,9.80
2022-08-03T16:35:36.427Z,9.30
2022-08-03T16:38:07.837Z,7.80
2022-08-03T16:40:36.654Z,7.85
2022-08-03T16:43:17.869Z,8.32
2022-08-03T16:45:46.619Z,9.48
2022-08-03T16:48:15.211Z,9.52
2022-08-03T16:50:41.920Z,11.43
2022-08-03T16:53:09.907Z,8.23
2022-08-03T16:55:53.922Z,9.45
2022-08-03T16:58:34.664Z,10.80
2022-08-03T17:01:22.283Z,9.55
2022-08-03T17:04:01.971Z,8.95
2022-08-03T17:06:36.996Z,9.73
2022-08-03T17:09:09.038Z,8.52
2022-08-03T17:11:38.051Z,8.48
2022-08-03T17:14:09.442Z,11.63
2022-08-03T17:16:38.491Z,9.88
2022-08-03T17:19:06.918Z,13.00
2022-08-03T17:21:37.613Z,10.43
2022-08-03T17:24:20.438Z,10.20
2022-08-03T17:26:49.914Z,8.48
2022-08-03T17:29:24.986Z,11.77
2022-08-03T17:31:53.394Z,9.05
2022-08-03T17:34:20.946Z,10.40
2022-08-03T17:37:27.208Z,10.93
2022-08-03T17:39:58.354Z,9.25
2022-08-03T17:42:30.892Z,9.03
2022-08-03T17:45:01.993Z,10.20
2022-08-03T17:47:41.355Z,10.65
2022-08-03T17:50:23.994Z,9.98
2022-08-03T17:53:15.608Z,10.40
2022-08-03T17:56:04.759Z,9.98
2022-08-03T17:59:09.364Z,8.40
2022-08-03T18:02:26.581Z,11.13
2022-08-03T18:05:00.686Z,8.57
2022-08-03T18:07:41.342Z,8.52
2022-08-03T18:10:11.608Z,7.05
2022-08-03T18:12:53.329Z,7.78
2022-08-03T18:15:43.607Z,8.10
2022-08-03T18:18:14.020Z,8.02
2022-08-03T18:20:42.665Z,8.95
2022-08-03T18:23:25.168Z,9.00
2022-08-03T18:26:02.504Z,9.45
2022-08-03T18:28:32.347Z,7.40
2022-08-03T18:31:04.241Z,7.90
2022-08-03T18:34:16.386Z,7.97
2022-08-03T18:36:29.991Z,9.15
2022-08-03T18:38:59.607Z,8.25
2022-08-03T18:41:32.385Z,8.98
2022-08-03T18:44:07.982Z,8.93
2022-08-03T18:46:48.232Z,10.07
2022-08-03T18:49:20.649Z,8.10
2022-08-03T18:51:54.931Z,8.13
2022-08-03T18:55:02.335Z,9.18
2022-08-03T19:00:54.354Z,9.50
2022-08-03T19:03:24.225Z,11.27
2022-08-03T19:06:09.457Z,10.18
2022-08-03T19:08:54.284Z,9.60
2022-08-03T19:12:13.242Z,10.18
2022-08-03T19:14:44.064Z,10.48
2022-08-03T19:17:12.497Z,11.95
2022-08-03T19:19:44.891Z,11.55
2022-08-03T19:22:16.165Z,10.73
2022-08-03T19:24:46.059Z,10.43
2022-08-03T19:27:13.613Z,9.20
2022-08-03T19:29:59.511Z,8.98
2022-08-03T19:32:30.043Z,9.07
2022-08-03T19:34:59.566Z,9.15
2022-08-03T19:37:33.186Z,12.20
2022-08-03T19:40:10.311Z,9.77
2022-08-03T19:42:40.033Z,9.43
2022-08-03T19:45:11.360Z,11.90
2022-08-03T19:48:09.695Z,8.93
2022-08-03T19:50:44.676Z,10.55
2022-08-03T19:53:13.396Z,11.98
2022-08-03T19:55:47.478Z,13.43
2022-08-03T19:58:24.495Z,13.13
2022-08-03T20:00:55.785Z,12.82
2022-08-03T20:03:23.493Z,13.55
2022-08-03T20:05:52.297Z,13.45
2022-08-03T20:08:21.292Z,13.60
2022-08-03T20:10:49.387Z,13.00
2022-08-03T20:13:19.454Z,15.27
2022-08-03T20:15:46.496Z,14.60
2022-08-03T20:18:16.892Z,12.85
2022-08-03T20:20:48.209Z,14.77
2022-08-03T20:23:19.428Z,14.32
2022-08-03T20:25:58.601Z,14.45
2022-08-03T20:28:50.125Z,16.50
2022-08-03T20:31:18.062Z,13.90
2022-08-03T20:33:46.256Z,16.33
2022-08-03T20:39:07.705Z,15.27
2022-08-03T20:41:35.717Z,15.93
2022-08-03T20:44:04.429Z,14.95
2022-08-03T20:46:46.492Z,14.80
2022-08-03T20:49:23.040Z,13.88
2022-08-03T20:51:53.111Z,14.25
2022-08-03T20:54:29.797Z,16.25
2022-08-03T20:57:03.773Z,15.48
2022-08-03T20:59:46.954Z,14.93
2022-08-03T21:02:19.865Z,14.30
2022-08-03T21:04:57.688Z,16.40
2022-08-03T21:08:04.096Z,15.55
2022-08-03T21:13:00.963Z,10.93
2022-08-03T21:13:08.183Z,16.48
2022-08-03T21:13:13.699Z,13.75
2022-08-03T21:13:17.524Z,16.65
2022-08-03T21:16:02.981Z,16.80
2022-08-03T21:18:42.469Z,15.68
2022-08-03T21:21:10.678Z,16.02
2022-08-03T21:23:48.896Z,17.33
2022-08-03T21:26:18.545Z,18.05
2022-08-03T21:28:47.046Z,16.02
2022-08-03T21:31:24.884Z,16.75
2022-08-03T21:33:57.685Z,18.67
2022-08-03T21:36:28.127Z,14.95
2022-08-03T21:38:57.433Z,17.50
2022-08-03T21:41:29.520Z,15.85
2022-08-03T21:43:56.319Z,16.73
2022-08-03T21:46:23.663Z,15.52
2022-08-03T21:50:04.347Z,18.00
2022-08-03T21:51:50.463Z,17.50
2022-08-03T21:54:20.107Z,16.23
2022-08-03T21:56:48.110Z,15.98
2022-08-03T21:59:19.716Z,15.63
2022-08-03T22:01:49.355Z,16.48
2022-08-03T22:04:42.665Z,17.85
2022-08-03T22:07:08.504Z,14.45
2022-08-03T22:09:36.369Z,16.17
2022-08-03T22:12:03.889Z,16.75
2022-08-03T22:14:32.866Z,17.08
2022-08-03T22:17:03.336Z,18.23
2022-08-03T22:19:33.121Z,14.75
2022-08-03T22:22:00.223Z,16.88
2022-08-03T22:24:32.015Z,15.13
2022-08-03T22:27:21.397Z,16.73
2022-08-03T22:29:50.967Z,15.88
2022-08-03T22:32:17.753Z,17.98
2022-08-03T22:34:46.820Z,17.25
2022-08-03T22:37:19.858Z,18.48
2022-08-03T22:39:49.816Z,15.30
2022-08-03T22:42:20.399Z,18.85
2022-08-03T22:44:50.086Z,18.10
2022-08-03T22:47:22.741Z,19.08
2022-08-03T22:50:31.772Z,17.05
2022-08-03T22:52:41.134Z,17.10
2022-08-03T22:55:11.131Z,17.50
2022-08-03T22:57:45.748Z,17.33
2022-08-03T23:00:22.471Z,18.70
2022-08-03T23:02:49.518Z,17.08
2022-08-03T23:06:02.592Z,17.67
2022-08-03T23:08:25.725Z,17.57
2022-08-03T23:10:53.854Z,16.55
2022-08-03T23:13:24.564Z,16.13
2022-08-03T23:15:56.478Z,19.25
2022-08-03T23:18:24.380Z,18.80
2022-08-03T23:20:57.485Z,17.15
2022-08-03T23:23:24.472Z,18.83
2022-08-03T23:25:51.928Z,18.88
2022-08-03T23:28:18.747Z,17.90
2022-08-03T23:30:45.809Z,18.92
2022-08-03T23:33:15.974Z,17.77
2022-08-03T23:36:28.660Z,19.88
2022-08-03T23:38:47.388Z,19.60
2022-08-03T23:41:17.579Z,21.40
2022-08-03T23:43:52.001Z,19.58
2022-08-03T23:46:22.267Z,20.65
2022-08-03T23:48:49.473Z,18.00
2022-08-03T23:51:57.049Z,17.20
2022-08-03T23:54:46.854Z,21.00
2022-08-03T23:57:37.345Z,19.30
